Terminal Aerodrome Forecast
Issued by NWS

Home | Current Version | Previous Version | Graphics & Text | Print | Product List | Glossary On
Versions: 1 2 3 4 5 6 7 8 9 10 11 12 13 14 15 16 17 18
000
FTUS43 KTOP 241734
TAFFOE
TAF
KFOE 241734Z 2418/2518 04007KT P6SM BKN150
     FM242300 04007KT P6SM VCTS SCT060CB BKN150
     FM250700 03006KT P6SM BKN200
     FM251200 06011KT P6SM SCT020 BKN200=

USA.gov is the U.S. government's official web portal to all federal, state and local government web resources and services.